Weather at El Asiento Airport

Public forecast

Using degrees Celsius for public forecast. Weather courtesy of forecast.io.

Closest aviation weather report (METAR) to El Asiento Airport

Closest report is Jardines Del Rey Airport, 33.9 nm (62.9 km) ENE. Retrieved 2021/06/13 17:50 UTC (22 minutes ago):

MUCC 131750Z 03007KT 010V070 9000 BKN020CB 31/25 Q1014

Closest aviation forecast (TAF) to El Asiento Airport

Closest forecast is Jardines Del Rey Airport, 33.9 nm (62.9 km) ENE. Retrieved 2021/06/13 18:03 UTC (9 minutes ago):

TAF MUCC 131700Z 1318/1418 19010KT 9000 SCT020 BKN040 TEMPO 1321/1401 VRB05KT 4000 TSRA BKN018CB BKN030 BECMG 1402/1404 VRB03KT